createdAt,value
2023-01-18T00:00:24.692Z,979.8
2023-01-18T00:05:30.797Z,979.8
2023-01-18T00:10:36.712Z,979.8
2023-01-18T00:15:42.734Z,979.8
2023-01-18T00:20:48.807Z,979.9
2023-01-18T00:25:54.883Z,979.9
2023-01-18T00:31:00.935Z,979.9
2023-01-18T00:36:06.978Z,979.9
2023-01-18T00:41:14.957Z,979.9
2023-01-18T00:46:22.890Z,979.9
2023-01-18T00:51:30.822Z,980
2023-01-18T00:56:38.780Z,980
2023-01-18T01:01:46.821Z,980
2023-01-18T01:06:54.668Z,980
2023-01-18T01:12:02.682Z,980.1
2023-01-18T01:17:10.545Z,980.1
2023-01-18T01:22:18.501Z,980.1
2023-01-18T01:27:26.486Z,980.1
2023-01-18T01:32:34.401Z,980.1
2023-01-18T01:37:42.351Z,980.1
2023-01-18T01:42:50.324Z,980.1
2023-01-18T01:47:58.245Z,980.2
2023-01-18T01:53:06.215Z,980.2
2023-01-18T01:58:14.149Z,980.3
2023-01-18T02:03:22.089Z,980.4
2023-01-18T02:08:30.047Z,980.4
2023-01-18T02:13:38.011Z,980.5
2023-01-18T02:18:44.040Z,980.6
2023-01-18T02:23:50.092Z,980.5
2023-01-18T02:28:56.185Z,980.5
2023-01-18T02:34:02.200Z,980.6
2023-01-18T02:39:10.605Z,980.6
2023-01-18T02:44:14.356Z,980.6
2023-01-18T02:49:20.409Z,980.7
2023-01-18T02:54:26.466Z,980.8
2023-01-18T02:59:32.539Z,980.7
2023-01-18T03:04:38.588Z,980.8
2023-01-18T03:09:44.653Z,980.8
2023-01-18T03:14:50.712Z,980.8
2023-01-18T03:19:56.755Z,980.9
2023-01-18T03:25:02.841Z,980.8
2023-01-18T03:30:08.903Z,980.8
2023-01-18T03:35:16.816Z,980.8
2023-01-18T03:40:22.860Z,980.9
2023-01-18T03:45:28.958Z,980.9
2023-01-18T03:50:34.998Z,981
2023-01-18T03:55:41.060Z,981.1
2023-01-18T04:00:47.225Z,981.1
2023-01-18T04:05:55.052Z,981.1
2023-01-18T04:11:01.120Z,981.3
2023-01-18T04:16:07.280Z,981.3
2023-01-18T04:21:13.225Z,981.4
2023-01-18T04:26:19.304Z,981.4
2023-01-18T04:31:25.445Z,981.5
2023-01-18T04:36:31.429Z,981.5
2023-01-18T04:41:39.343Z,981.5
2023-01-18T04:46:47.325Z,981.5
2023-01-18T04:51:55.249Z,981.5
2023-01-18T04:57:03.207Z,981.6
2023-01-18T05:02:11.207Z,981.7
2023-01-18T05:07:19.108Z,981.8
2023-01-18T05:12:27.058Z,981.9
2023-01-18T05:22:42.950Z,982
2023-01-18T05:27:50.883Z,982
2023-01-18T05:32:59.200Z,982.1
2023-01-18T05:38:06.809Z,982.2
2023-01-18T05:43:14.754Z,982.3
2023-01-18T05:48:22.707Z,982.4
2023-01-18T05:53:30.657Z,982.5
2023-01-18T05:58:38.562Z,982.5
2023-01-18T06:03:46.533Z,982.6
2023-01-18T06:08:54.497Z,982.7
2023-01-18T06:14:02.437Z,982.7
2023-01-18T06:19:10.372Z,982.8
2023-01-18T06:24:18.355Z,982.9
2023-01-18T06:29:24.376Z,983
2023-01-18T06:34:32.303Z,983.1
2023-01-18T06:39:38.399Z,983.1
2023-01-18T06:44:46.299Z,983.2
2023-01-18T06:49:52.357Z,983.2
2023-01-18T06:55:00.308Z,983.3
2023-01-18T07:00:06.419Z,983.3
2023-01-18T07:05:12.500Z,983.4
2023-01-18T07:10:18.614Z,983.4
2023-01-18T07:15:24.530Z,983.5
2023-01-18T07:20:32.504Z,983.6
2023-01-18T07:25:38.578Z,983.7
2023-01-18T07:30:44.617Z,983.7
2023-01-18T07:35:50.655Z,983.8
2023-01-18T07:40:56.744Z,983.9
2023-01-18T07:46:04.664Z,984
2023-01-18T07:51:10.707Z,984
2023-01-18T07:56:16.792Z,984.1
2023-01-18T08:01:23.029Z,984.1
2023-01-18T08:06:28.896Z,984.2
2023-01-18T08:11:34.970Z,984.3
2023-01-18T08:16:42.876Z,984.4
2023-01-18T08:21:48.974Z,984.5
2023-01-18T08:32:02.973Z,984.6
2023-01-18T08:37:10.884Z,984.8
2023-01-18T08:42:18.863Z,984.8
2023-01-18T08:47:26.819Z,984.9
2023-01-18T08:52:34.736Z,985
2023-01-18T08:57:42.677Z,985.1
2023-01-18T09:07:58.608Z,985.3
2023-01-18T09:13:06.519Z,985.3
2023-01-18T09:18:14.479Z,985.4
2023-01-18T09:23:22.471Z,985.5
2023-01-18T09:28:30.363Z,985.5
2023-01-18T09:33:38.320Z,985.6
2023-01-18T09:38:46.317Z,985.7
2023-01-18T09:43:54.228Z,985.7
2023-01-18T09:49:02.187Z,985.7
2023-01-18T09:54:10.169Z,985.7
2023-01-18T09:59:18.076Z,985.7
2023-01-18T10:04:26.018Z,985.8
2023-01-18T10:09:33.997Z,985.9
2023-01-18T10:14:41.899Z,985.9
2023-01-18T10:19:49.847Z,985.9
2023-01-18T10:24:57.854Z,985.9
2023-01-18T10:30:05.754Z,986
2023-01-18T10:35:13.707Z,986
2023-01-18T10:40:21.693Z,986
2023-01-18T10:45:27.829Z,986
2023-01-18T10:50:33.795Z,986.1
2023-01-18T10:55:39.837Z,986.2
2023-01-18T11:00:46.011Z,986.2
2023-01-18T11:05:53.086Z,986.3
2023-01-18T11:10:59.173Z,986.3
2023-01-18T11:16:05.305Z,986.3
2023-01-18T11:21:11.267Z,986.3
2023-01-18T11:26:17.391Z,986.3
2023-01-18T11:31:23.454Z,986.3
2023-01-18T11:36:31.304Z,986.4
2023-01-18T11:41:37.388Z,986.4
2023-01-18T11:46:43.436Z,986.3
2023-01-18T11:51:49.511Z,986.4
2023-01-18T11:56:55.588Z,986.4
2023-01-18T12:02:01.717Z,986.4
2023-01-18T12:07:09.541Z,986.4
2023-01-18T12:12:19.553Z,986.3
2023-01-18T12:17:25.478Z,986.3
2023-01-18T12:22:31.532Z,986.4
2023-01-18T12:27:37.585Z,986.4
2023-01-18T12:32:45.506Z,986.4
2023-01-18T12:37:53.426Z,986.4
2023-01-18T12:43:01.414Z,986.4
2023-01-18T12:48:09.315Z,986.4
2023-01-18T12:53:17.424Z,986.4
2023-01-18T12:58:25.267Z,986.5
2023-01-18T13:03:33.182Z,986.5
2023-01-18T13:08:42.697Z,986.6
2023-01-18T13:13:49.105Z,986.7
2023-01-18T13:18:57.019Z,986.6
2023-01-18T13:24:04.990Z,986.7
2023-01-18T13:29:12.960Z,986.7
2023-01-18T13:34:20.888Z,986.7
2023-01-18T13:39:28.814Z,986.8
2023-01-18T13:44:36.788Z,986.7
2023-01-18T13:49:44.741Z,986.7
2023-01-18T13:54:52.666Z,986.8
2023-01-18T14:00:00.639Z,986.9
2023-01-18T14:05:08.545Z,986.9
2023-01-18T14:10:16.497Z,987
2023-01-18T14:15:24.493Z,987
2023-01-18T14:20:32.401Z,987.1
2023-01-18T14:25:40.341Z,987.2
2023-01-18T14:30:48.314Z,987.2
2023-01-18T14:35:56.290Z,987.2
2023-01-18T14:41:05.118Z,987.4
2023-01-18T14:46:12.363Z,987.4
2023-01-18T14:51:20.103Z,987.4
2023-01-18T14:56:28.036Z,987.5
2023-01-18T15:01:34.334Z,987.6
2023-01-18T15:06:40.227Z,987.7
2023-01-18T15:11:46.231Z,987.8
2023-01-18T15:16:52.299Z,987.8
2023-01-18T15:21:58.338Z,987.9
2023-01-18T15:27:06.271Z,987.9
2023-01-18T15:32:12.350Z,987.9
2023-01-18T15:37:18.386Z,988
2023-01-18T15:42:26.367Z,988.1
2023-01-18T15:47:34.296Z,988
2023-01-18T15:52:44.750Z,988
2023-01-18T15:57:52.515Z,988
2023-01-18T16:02:56.241Z,988
2023-01-18T16:08:15.471Z,988.1
2023-01-18T16:13:10.236Z,988.1
2023-01-18T16:18:16.300Z,988.1
2023-01-18T16:23:23.162Z,988.1
2023-01-18T16:28:30.276Z,988.2
2023-01-18T16:33:38.242Z,988.3
2023-01-18T16:38:46.203Z,988.4
2023-01-18T16:43:54.106Z,988.4
2023-01-18T16:49:02.083Z,988.4
2023-01-18T16:54:10.020Z,988.5
2023-01-18T16:59:17.968Z,988.5
2023-01-18T17:04:25.928Z,988.5
2023-01-18T17:09:40.482Z,988.6
2023-01-18T17:14:41.811Z,988.6
2023-01-18T17:19:49.768Z,988.7
2023-01-18T17:24:57.693Z,988.7
2023-01-18T17:30:05.646Z,988.7
2023-01-18T17:35:13.614Z,988.7
2023-01-18T17:40:30.992Z,988.8
2023-01-18T17:45:29.489Z,988.8
2023-01-18T17:50:37.449Z,988.9
2023-01-18T17:55:45.358Z,988.9
2023-01-18T18:00:53.395Z,989
2023-01-18T18:06:01.291Z,989.1
2023-01-18T18:11:09.209Z,989.2
2023-01-18T18:16:18.799Z,989.2
2023-01-18T18:21:25.141Z,989.3
2023-01-18T18:26:33.062Z,989.3
2023-01-18T18:31:40.995Z,989.3
2023-01-18T18:36:48.975Z,989.4
2023-01-18T18:41:56.901Z,989.5
2023-01-18T18:47:06.762Z,989.5
2023-01-18T18:52:12.836Z,989.6
2023-01-18T18:57:20.742Z,989.6
2023-01-18T19:02:28.814Z,989.7
2023-01-18T19:07:36.692Z,989.8
2023-01-18T19:12:44.610Z,989.9
2023-01-18T19:17:52.543Z,990.1
2023-01-18T19:22:58.885Z,990.1
2023-01-18T19:28:06.588Z,990.1
2023-01-18T19:33:12.608Z,990.2
2023-01-18T19:38:18.686Z,990.2
2023-01-18T19:43:26.592Z,990.2
2023-01-18T19:48:32.653Z,990.2
2023-01-18T19:53:38.759Z,990.3
2023-01-18T19:58:44.781Z,990.3
2023-01-18T20:03:50.824Z,990.4
2023-01-18T20:08:56.904Z,990.4
2023-01-18T20:14:04.823Z,990.4
2023-01-18T20:19:10.887Z,990.4
2023-01-18T20:24:16.988Z,990.5
2023-01-18T20:29:23.019Z,990.6
2023-01-18T20:34:30.939Z,990.6
2023-01-18T20:39:37.036Z,990.6
2023-01-18T20:44:44.946Z,990.6
2023-01-18T20:49:52.879Z,990.6
2023-01-18T20:55:00.875Z,990.7
2023-01-18T21:00:08.787Z,990.7
2023-01-18T21:05:16.728Z,990.7
2023-01-18T21:10:24.747Z,990.7
2023-01-18T21:15:32.634Z,990.8
2023-01-18T21:25:48.570Z,990.9
2023-01-18T21:30:56.471Z,990.9
2023-01-18T21:36:04.451Z,990.9
2023-01-18T21:41:12.465Z,990.9
2023-01-18T21:46:20.340Z,991
2023-01-18T21:51:28.256Z,990.9
2023-01-18T21:56:36.239Z,991
2023-01-18T22:01:44.350Z,991
2023-01-18T22:06:52.105Z,991
2023-01-18T22:12:00.128Z,991
2023-01-18T22:17:08.070Z,991
2023-01-18T22:22:15.939Z,991.1
2023-01-18T22:27:23.929Z,991.1
2023-01-18T22:32:31.859Z,991.2
2023-01-18T22:37:39.792Z,991.2
2023-01-18T22:42:47.796Z,991.3
2023-01-18T22:47:55.677Z,991.4
2023-01-18T22:53:03.664Z,991.4
2023-01-18T22:58:11.595Z,991.4
2023-01-18T23:03:19.579Z,991.5
2023-01-18T23:08:27.489Z,991.6
2023-01-18T23:13:35.509Z,991.6
2023-01-18T23:18:43.364Z,991.6
2023-01-18T23:23:51.317Z,991.6
2023-01-18T23:28:59.288Z,991.6
2023-01-18T23:34:07.225Z,991.6
2023-01-18T23:39:13.289Z,991.6
2023-01-18T23:44:19.359Z,991.6
2023-01-18T23:49:25.405Z,991.6
2023-01-18T23:54:31.468Z,991.7
2023-01-18T23:59:37.551Z,991.7
